Time;durP1;ratioP1;P1;durP2;ratioP2;P2;SDS_P1;SDS_P2;PMS_P1;PMS_P2;Temp;Humidity;BMP_temperature;BMP_pressure;BME280_temperature;BME280_humidity;BME280_pressure;Samples;Min_cycle;Max_cycle;Signal;HPM_P1;HPM_P2
2023/01/04 08:55:38;;;;;;;42.25;26.02;;;15.00;99.90;;;;;;5128977;27;20826;-81
2023/01/04 08:58:04;;;;;;;43.33;25.83;;;15.30;99.90;;;;;;5126482;27;20206;-81
2023/01/04 09:00:30;;;;;;;34.60;23.40;;;15.80;99.90;;;;;;5124983;28;20436;-82
2023/01/04 09:02:56;;;;;;;37.93;25.23;;;16.50;99.90;;;;;;5126668;28;20952;-83
2023/01/04 09:05:22;;;;;;;35.13;22.47;;;17.20;99.90;;;;;;5127340;28;20442;-82
2023/01/04 09:07:48;;;;;;;31.10;22.33;;;17.90;99.90;;;;;;5128518;27;20419;-84
2023/01/04 09:10:13;;;;;;;32.07;24.37;;;18.40;99.90;;;;;;5120303;27;20179;-83
2023/01/04 09:12:39;;;;;;;32.97;22.57;;;19.00;99.90;;;;;;5109494;28;20202;-82
2023/01/04 09:15:06;;;;;;;25.97;21.17;;;19.60;99.90;;;;;;5111332;28;20212;-82
2023/01/04 09:17:31;;;;;;;32.60;23.30;;;20.20;99.90;;;;;;5107607;28;20436;-84
2023/01/04 09:19:57;;;;;;;27.20;18.70;;;20.50;99.90;;;;;;5119828;28;20425;-81
2023/01/04 09:22:22;;;;;;;22.27;17.10;;;20.60;99.90;;;;;;5108686;28;20202;-83
2023/01/04 09:24:48;;;;;;;24.70;17.50;;;20.70;99.90;;;;;;5108952;28;20211;-81
2023/01/04 09:27:14;;;;;;;18.60;16.60;;;20.70;99.90;;;;;;5106885;28;20596;-83
2023/01/04 09:29:40;;;;;;;17.27;15.20;;;20.70;99.90;;;;;;5107023;28;20430;-81
2023/01/04 09:32:06;;;;;;;18.60;14.30;;;20.60;99.90;;;;;;5107417;28;20221;-81
2023/01/04 09:34:31;;;;;;;19.57;15.17;;;20.80;99.90;;;;;;5114832;28;20478;-82
2023/01/04 09:36:57;;;;;;;20.83;14.97;;;21.00;99.90;;;;;;5127534;28;20171;-84
2023/01/04 09:39:25;;;;;;;18.13;13.50;;;21.10;99.90;;;;;;5129071;27;20538;-84
2023/01/04 09:42:02;;;;;;;18.03;13.70;;;21.00;99.40;;;;;;5124483;27;20465;-86
2023/01/04 09:44:43;;;;;;;19.80;14.40;;;21.20;98.50;;;;;;5106184;28;21278;-83
2023/01/04 09:47:19;;;;;;;16.70;13.10;;;21.40;98.00;;;;;;5105610;28;20448;-83
2023/01/04 09:49:45;;;;;;;17.50;13.23;;;21.60;98.00;;;;;;5111134;28;20785;-83
2023/01/04 09:52:18;;;;;;;19.57;14.13;;;21.60;97.70;;;;;;5106777;28;20484;-86
2023/01/04 09:55:02;;;;;;;16.77;12.63;;;21.40;97.60;;;;;;5105769;28;20337;-86
2023/01/04 09:57:32;;;;;;;17.20;13.27;;;21.10;96.70;;;;;;5124345;28;20530;-84
2023/01/04 10:00:04;;;;;;;16.60;12.77;;;20.70;97.20;;;;;;5125806;28;20922;-84
2023/01/04 10:02:51;;;;;;;13.40;11.60;;;20.40;97.40;;;;;;5126791;28;20451;-86
2023/01/04 10:05:21;;;;;;;15.20;13.07;;;20.20;97.70;;;;;;5122671;28;20431;-86
2023/01/04 10:07:47;;;;;;;15.57;12.97;;;20.10;97.70;;;;;;5112621;28;20429;-83
2023/01/04 10:10:16;;;;;;;16.57;11.80;;;19.80;98.30;;;;;;5112531;28;20427;-85
2023/01/04 10:12:58;;;;;;;16.27;12.10;;;19.40;97.90;;;;;;5113702;28;21190;-84
2023/01/04 10:15:56;;;;;;;14.87;12.17;;;19.10;98.20;;;;;;5112060;28;20536;-85
2023/01/04 10:18:59;;;;;;;14.83;13.23;;;18.70;99.00;;;;;;5111404;28;20438;-84
2023/01/04 10:21:39;;;;;;;18.23;12.90;;;18.60;99.00;;;;;;5112471;28;20434;-83
2023/01/04 10:24:13;;;;;;;18.60;12.13;;;18.40;99.30;;;;;;5112293;28;20537;-84
2023/01/04 10:26:47;;;;;;;19.13;12.63;;;18.20;99.90;;;;;;5111374;28;20413;-86
2023/01/04 10:29:31;;;;;;;14.73;11.47;;;18.10;99.90;;;;;;5111369;28;20477;-83
2023/01/04 10:32:21;;;;;;;12.43;10.30;;;17.70;99.60;;;;;;5112390;28;20424;-83
2023/01/04 10:34:47;;;;;;;11.83;9.90;;;17.60;99.70;;;;;;5112740;28;20508;-83
2023/01/04 10:37:35;;;;;;;13.37;10.23;;;17.40;99.90;;;;;;5114178;28;20455;-86
2023/01/04 10:40:10;;;;;;;13.87;10.27;;;17.30;99.90;;;;;;5114970;28;20181;-81
2023/01/04 10:42:55;;;;;;;15.43;11.10;;;17.20;99.90;;;;;;5116176;28;20412;-83
2023/01/04 10:45:39;;;;;;;12.27;10.40;;;17.20;99.90;;;;;;5115236;28;20479;-81
2023/01/04 10:48:37;;;;;;;10.77;9.13;;;17.10;99.90;;;;;;5114412;28;20512;-81
2023/01/04 10:51:05;;;;;;;13.70;9.63;;;17.00;99.90;;;;;;5087314;28;20515;-81
2023/01/04 10:53:54;;;;;;;13.97;10.03;;;16.80;99.90;;;;;;5115638;28;20484;-86
2023/01/04 10:56:30;;;;;;;16.53;10.40;;;16.70;99.90;;;;;;5113853;28;20973;-83
2023/01/04 10:59:34;;;;;;;12.90;9.80;;;16.50;99.90;;;;;;5114768;28;20443;-83
2023/01/04 11:02:06;;;;;;;10.60;9.10;;;16.30;99.90;;;;;;5114778;28;20902;-86
2023/01/04 11:04:35;;;;;;;13.23;9.70;;;16.20;99.90;;;;;;5114709;28;20932;-83
2023/01/04 11:07:19;;;;;;;11.13;8.27;;;16.10;99.90;;;;;;5114133;28;20432;-83
2023/01/04 11:09:56;;;;;;;11.20;8.20;;;15.90;99.90;;;;;;5114188;28;20744;-86
2023/01/04 11:12:23;;;;;;;10.40;8.60;;;15.70;99.90;;;;;;5111999;28;20432;-83
2023/01/04 11:14:52;;;;;;;13.80;9.33;;;15.50;99.90;;;;;;5101207;28;20583;-83
2023/01/04 11:17:20;;;;;;;14.10;9.10;;;15.30;99.90;;;;;;5088379;28;20864;-84
2023/01/04 11:19:46;;;;;;;13.90;9.00;;;15.20;99.90;;;;;;5092015;28;20413;-86
2023/01/04 11:22:21;;;;;;;10.93;9.00;;;15.10;99.90;;;;;;5090064;28;20822;-83
2023/01/04 11:24:56;;;;;;;15.60;9.30;;;15.10;99.90;;;;;;5091019;28;20482;-86
2023/01/04 11:27:27;;;;;;;10.23;8.00;;;15.00;99.90;;;;;;5091320;28;20428;-86
2023/01/04 11:30:02;;;;;;;11.50;9.23;;;15.00;99.90;;;;;;5091672;28;20413;-83
2023/01/04 11:32:49;;;;;;;8.93;7.43;;;14.70;99.90;;;;;;5091216;28;20416;-83
2023/01/04 11:35:15;;;;;;;9.43;6.90;;;14.60;99.90;;;;;;5090220;28;20480;-83
2023/01/04 11:37:41;;;;;;;8.30;6.80;;;14.50;99.90;;;;;;5091423;28;20425;-83
2023/01/04 11:40:16;;;;;;;8.30;6.20;;;14.60;99.90;;;;;;5092885;28;20722;-86
2023/01/04 11:42:43;;;;;;;7.50;6.30;;;14.50;99.90;;;;;;5093583;28;20440;-86
2023/01/04 11:45:24;;;;;;;8.87;6.77;;;14.60;99.90;;;;;;5095232;28;20429;-83
2023/01/04 11:47:56;;;;;;;5.67;4.90;;;14.70;99.90;;;;;;5093476;28;20433;-86
2023/01/04 11:50:43;;;;;;;11.67;6.60;;;14.70;99.90;;;;;;5093663;28;20459;-84
2023/01/04 11:53:32;;;;;;;6.60;4.80;;;14.80;99.90;;;;;;5094582;28;20798;-83
2023/01/04 11:56:13;;;;;;;9.20;4.97;;;14.90;99.90;;;;;;5093225;28;20520;-86
2023/01/04 11:58:39;;;;;;;6.50;4.97;;;15.00;99.60;;;;;;5092943;28;20448;-83
2023/01/04 12:01:05;;;;;;;5.07;4.57;;;15.00;99.90;;;;;;5093149;28;20500;-83
2023/01/04 12:03:39;;;;;;;7.17;5.77;;;15.00;99.30;;;;;;5094321;28;20999;-84
2023/01/04 12:06:43;;;;;;;7.53;5.03;;;15.00;99.70;;;;;;5093048;28;20490;-83
2023/01/04 12:09:14;;;;;;;6.00;4.70;;;15.00;99.40;;;;;;5092786;28;20601;-86
2023/01/04 12:11:49;;;;;;;6.20;5.60;;;15.10;99.90;;;;;;5109991;28;20406;-83
2023/01/04 12:14:25;;;;;;;7.17;5.27;;;15.10;99.40;;;;;;5097558;28;20483;-87
2023/01/04 12:17:17;;;;;;;5.07;4.30;;;15.10;99.80;;;;;;5105069;28;20427;-86
2023/01/04 12:19:45;;;;;;;6.90;4.93;;;15.10;99.70;;;;;;5092910;28;20486;-87
2023/01/04 12:22:34;;;;;;;5.67;4.90;;;15.10;99.90;;;;;;5094116;28;20457;-86
2023/01/04 12:25:01;;;;;;;5.60;4.60;;;15.10;99.70;;;;;;5096256;28;20448;-86
2023/01/04 12:27:27;;;;;;;5.73;5.13;;;15.20;99.70;;;;;;5113083;28;20963;-83
2023/01/04 12:30:05;;;;;;;11.50;5.60;;;15.10;99.90;;;;;;5114594;28;20787;-84
2023/01/04 12:32:31;;;;;;;5.57;4.67;;;15.20;99.90;;;;;;5126042;27;20829;-86
2023/01/04 12:34:56;;;;;;;8.07;4.40;;;15.10;99.80;;;;;;5092628;28;20487;-83
2023/01/04 12:37:44;;;;;;;7.13;4.90;;;15.10;99.70;;;;;;5090769;28;20200;-84
2023/01/04 12:40:44;;;;;;;5.03;4.00;;;15.10;99.80;;;;;;5093711;28;20944;-84
2023/01/04 12:43:15;;;;;;;7.60;5.30;;;15.20;99.90;;;;;;5093677;28;20439;-83
2023/01/04 12:49:02;;;;;;;4.87;4.40;;;15.10;99.30;;;;;;5095664;28;20908;-84
2023/01/04 12:51:21;;;;;;;7.97;5.60;;;15.00;99.90;;;;;;5093996;28;20497;-83
2023/01/04 12:53:56;;;;;;;9.10;6.13;;;15.00;99.50;;;;;;5091934;28;21017;-82
2023/01/04 12:56:22;;;;;;;6.17;5.20;;;15.00;99.50;;;;;;5092179;28;20467;-86
2023/01/04 12:59:10;;;;;;;7.40;5.50;;;15.00;99.60;;;;;;5092310;28;20517;-83
2023/01/04 13:01:36;;;;;;;6.27;4.80;;;15.00;99.60;;;;;;5101764;28;20804;-86
2023/01/04 13:04:39;;;;;;;6.43;5.20;;;15.00;99.90;;;;;;5099293;28;21029;-83
2023/01/04 13:07:13;;;;;;;6.70;5.73;;;15.20;99.90;;;;;;5093796;28;20415;-86
2023/01/04 13:09:45;;;;;;;7.20;5.70;;;15.20;99.90;;;;;;5093251;28;20476;-86
2023/01/04 13:12:44;;;;;;;6.67;5.37;;;15.30;99.90;;;;;;5112218;28;20397;-83
2023/01/04 13:15:21;;;;;;;6.10;5.50;;;15.30;99.90;;;;;;5112771;28;20561;-82
2023/01/04 13:17:47;;;;;;;7.67;5.90;;;15.30;99.90;;;;;;5096173;28;20444;-86
2023/01/04 13:20:22;;;;;;;10.07;7.13;;;15.30;99.90;;;;;;5089814;28;20440;-86
2023/01/04 13:22:52;;;;;;;7.93;6.00;;;15.30;99.90;;;;;;5090034;28;20440;-87
2023/01/04 13:25:19;;;;;;;7.27;5.73;;;15.40;99.90;;;;;;5090179;28;20421;-83
2023/01/04 13:27:59;;;;;;;8.37;5.93;;;15.40;99.90;;;;;;5090048;28;20779;-86
2023/01/04 13:30:34;;;;;;;7.17;5.00;;;15.40;99.90;;;;;;5091095;28;20432;-86
2023/01/04 13:33:17;;;;;;;8.40;5.53;;;15.40;99.90;;;;;;5093242;28;20937;-86
2023/01/04 13:35:44;;;;;;;6.47;5.40;;;15.40;99.90;;;;;;5092173;28;20499;-83
2023/01/04 13:38:15;;;;;;;6.80;5.40;;;15.40;99.90;;;;;;5091942;28;20789;-85
2023/01/04 13:40:45;;;;;;;24.77;15.80;;;15.50;99.70;;;;;;5094575;28;20405;-86
2023/01/04 13:43:32;;;;;;;13.90;9.30;;;15.50;99.30;;;;;;5097016;28;20417;-86
2023/01/04 13:46:04;;;;;;;17.53;10.97;;;15.60;99.60;;;;;;5097189;28;20483;-86
2023/01/04 13:48:36;;;;;;;9.90;8.10;;;15.60;99.50;;;;;;5095612;28;20448;-86
2023/01/04 13:51:11;;;;;;;8.80;6.70;;;15.70;99.30;;;;;;5112775;28;20515;-86
2023/01/04 13:53:36;;;;;;;8.07;6.43;;;15.80;99.60;;;;;;5114337;28;20597;-83
2023/01/04 13:56:02;;;;;;;7.27;6.47;;;16.00;99.50;;;;;;5117326;28;20944;-86
2023/01/04 13:58:30;;;;;;;9.30;6.67;;;16.10;99.50;;;;;;5108641;28;20675;-83
2023/01/04 14:01:14;;;;;;;8.00;6.37;;;16.40;99.10;;;;;;5111709;28;20578;-86
2023/01/04 14:03:47;;;;;;;7.63;5.37;;;16.70;99.10;;;;;;5115822;28;20499;-85
2023/01/04 14:06:13;;;;;;;7.73;5.43;;;17.00;99.50;;;;;;5100892;28;20437;-87
2023/01/04 14:08:48;;;;;;;6.70;5.60;;;17.30;99.20;;;;;;5095504;28;20930;-83
2023/01/04 14:11:58;;;;;;;7.50;6.40;;;17.70;99.60;;;;;;5101417;28;20675;-84
2023/01/04 14:14:54;;;;;;;7.13;6.07;;;18.10;98.80;;;;;;5101826;28;20556;-87
2023/01/04 14:17:31;;;;;;;6.93;6.20;;;18.50;97.70;;;;;;5094252;28;20473;-84
2023/01/04 14:20:03;;;;;;;7.37;6.40;;;18.70;96.90;;;;;;5091596;28;20432;-84
2023/01/04 14:22:37;;;;;;;8.83;6.80;;;18.90;96.00;;;;;;5092351;28;20953;-84
2023/01/04 14:25:34;;;;;;;7.90;7.10;;;19.00;95.50;;;;;;5092631;28;20428;-86
2023/01/04 14:28:18;;;;;;;8.60;7.63;;;18.80;94.60;;;;;;5095693;28;20462;-83
2023/01/04 14:30:57;;;;;;;21.30;19.10;;;18.50;94.80;;;;;;5098370;28;20489;-84
2023/01/04 14:33:35;;;;;;;20.87;18.67;;;18.00;95.60;;;;;;5111433;28;20546;-86
2023/01/04 14:36:05;;;;;;;44.50;26.33;;;17.50;95.60;;;;;;5113028;28;20451;-86
2023/01/04 14:38:36;;;;;;;33.40;26.37;;;17.20;96.10;;;;;;5114353;27;20437;-86
2023/01/04 14:41:18;;;;;;;26.33;20.70;;;16.90;96.20;;;;;;5114481;28;20393;-86
2023/01/04 14:43:47;;;;;;;22.40;16.20;;;16.60;96.70;;;;;;5113174;28;20448;-86
2023/01/04 14:46:13;;;;;;;20.63;13.83;;;16.40;97.70;;;;;;5114478;28;20847;-86
2023/01/04 14:48:38;;;;;;;19.90;12.60;;;16.20;97.60;;;;;;5113055;28;20468;-83
2023/01/04 14:51:06;;;;;;;23.90;17.43;;;16.00;97.40;;;;;;5112627;28;20495;-84
2023/01/04 14:53:32;;;;;;;16.87;12.60;;;15.80;98.10;;;;;;5112294;28;20536;-84
2023/01/04 14:55:58;;;;;;;29.67;21.97;;;15.60;98.20;;;;;;5114280;27;20909;-82
2023/01/04 14:58:23;;;;;;;57.00;34.50;;;15.40;98.40;;;;;;5114294;28;20427;-83
2023/01/04 15:00:49;;;;;;;122.57;57.10;;;15.20;99.40;;;;;;5113025;28;20412;-83
2023/01/04 15:03:15;;;;;;;73.37;44.30;;;15.00;99.20;;;;;;5112880;28;20195;-83
2023/01/04 15:05:43;;;;;;;52.10;32.03;;;14.80;98.90;;;;;;5113424;28;20564;-83
2023/01/04 15:08:10;;;;;;;38.87;28.67;;;14.60;99.20;;;;;;5112876;28;20195;-86
2023/01/04 15:10:36;;;;;;;25.03;18.80;;;14.40;99.20;;;;;;5114249;28;20416;-86
2023/01/04 15:13:03;;;;;;;36.53;25.17;;;14.40;99.90;;;;;;5113730;28;20432;-83
2023/01/04 15:15:31;;;;;;;57.30;35.37;;;14.20;99.90;;;;;;5112383;28;20268;-83
2023/01/04 15:17:57;;;;;;;73.27;37.83;;;14.00;99.90;;;;;;5113307;28;20601;-83
2023/01/04 15:20:23;;;;;;;48.63;31.13;;;13.90;99.90;;;;;;5091895;28;20456;-83
2023/01/04 15:22:49;;;;;;;35.33;25.13;;;13.80;99.90;;;;;;5088206;28;20941;-83
2023/01/04 15:25:14;;;;;;;43.23;30.10;;;13.70;99.90;;;;;;5089869;28;20191;-86
2023/01/04 15:27:40;;;;;;;52.37;30.30;;;13.60;99.90;;;;;;5090493;28;20214;-85
2023/01/04 15:30:06;;;;;;;37.50;23.93;;;13.40;99.90;;;;;;5090290;28;20176;-83
2023/01/04 15:32:34;;;;;;;57.90;33.60;;;13.40;99.90;;;;;;5088780;28;20200;-85
2023/01/04 15:35:00;;;;;;;86.27;47.20;;;13.20;99.90;;;;;;5093171;28;20497;-83
2023/01/04 15:37:26;;;;;;;92.93;48.83;;;13.10;99.90;;;;;;5091675;28;20840;-86
2023/01/04 15:39:52;;;;;;;85.03;54.50;;;12.90;99.90;;;;;;5091810;28;20413;-83
2023/01/04 15:45:02;;;;;;;188.03;117.30;;;12.90;99.90;;;;;;5092964;28;20427;-83
2023/01/04 15:47:28;;;;;;;352.70;198.13;;;12.80;99.90;;;;;;5092567;28;20421;-85
2023/01/04 15:49:54;;;;;;;224.23;136.90;;;12.70;99.90;;;;;;5093093;28;20473;-86
2023/01/04 15:52:20;;;;;;;200.23;126.23;;;12.60;99.90;;;;;;5092669;28;20497;-85
2023/01/04 15:54:46;;;;;;;158.67;96.17;;;12.50;99.90;;;;;;5093065;28;20650;-85
2023/01/04 15:57:12;;;;;;;171.10;87.37;;;12.40;99.90;;;;;;5093356;28;20207;-86
2023/01/04 15:59:38;;;;;;;190.02;89.40;;;12.30;99.90;;;;;;5093178;28;20734;-83
2023/01/04 16:02:05;;;;;;;82.70;49.37;;;12.30;99.90;;;;;;5093222;28;20674;-83
2023/01/04 16:04:31;;;;;;;70.03;40.90;;;12.20;99.90;;;;;;5092566;28;20937;-83
2023/01/04 16:06:57;;;;;;;48.47;32.35;;;12.10;99.90;;;;;;5094417;28;20394;-83
2023/01/04 16:09:23;;;;;;;41.60;28.48;;;11.90;99.90;;;;;;5093209;28;20180;-82
2023/01/04 16:14:33;;;;;;;50.05;32.60;;;11.70;99.90;;;;;;5094563;28;20226;-85
2023/01/04 16:16:59;;;;;;;37.17;27.60;;;11.60;99.90;;;;;;5093040;28;20173;-83
2023/01/04 16:19:25;;;;;;;30.00;22.48;;;11.40;99.90;;;;;;5093042;28;20184;-84
2023/01/04 16:21:50;;;;;;;32.60;25.17;;;11.30;99.90;;;;;;5093004;28;20179;-83
2023/01/04 16:24:16;;;;;;;226.67;112.73;;;11.30;99.90;;;;;;5092966;28;20204;-85
2023/01/04 16:26:42;;;;;;;30.53;21.53;;;11.20;99.90;;;;;;5094258;28;20165;-83
2023/01/04 16:29:11;;;;;;;33.07;25.00;;;11.10;99.90;;;;;;5092785;28;20803;-86
2023/01/04 16:31:37;;;;;;;28.63;23.52;;;11.10;99.90;;;;;;5094098;28;20418;-86
2023/01/04 16:34:04;;;;;;;87.95;54.22;;;11.00;99.90;;;;;;5094241;28;20703;-83
2023/01/04 16:36:30;;;;;;;73.45;44.05;;;10.90;99.90;;;;;;5094008;28;20694;-83
2023/01/04 16:38:55;;;;;;;44.17;30.07;;;10.80;99.90;;;;;;5092750;28;20204;-86
2023/01/04 16:41:21;;;;;;;31.57;24.83;;;10.70;99.90;;;;;;5093976;28;20432;-83
2023/01/04 16:43:50;;;;;;;33.38;24.48;;;10.70;99.90;;;;;;5092623;28;20299;-83
2023/01/04 16:46:25;;;;;;;40.90;28.02;;;10.60;99.90;;;;;;5092592;28;20176;-86
2023/01/04 16:49:00;;;;;;;53.53;35.00;;;10.50;99.90;;;;;;5097561;28;20303;-85
2023/01/04 16:51:28;;;;;;;86.45;66.30;;;10.50;99.90;;;;;;5112554;28;20266;-86
2023/01/04 16:53:54;;;;;;;46.53;36.05;;;10.40;99.90;;;;;;5110996;28;20235;-85
2023/01/04 16:56:22;;;;;;;64.72;48.22;;;10.40;99.90;;;;;;5113155;28;20168;-86
2023/01/04 16:58:49;;;;;;;109.00;79.50;;;10.40;99.90;;;;;;5114129;28;20207;-83
2023/01/04 17:01:17;;;;;;;84.40;63.28;;;10.40;99.90;;;;;;5113566;28;20176;-82
2023/01/04 17:03:45;;;;;;;110.30;68.10;;;10.30;99.90;;;;;;5111437;28;20231;-83
2023/01/04 17:06:22;;;;;;;75.22;53.50;;;10.30;99.90;;;;;;5112014;28;20213;-83
2023/01/04 17:08:51;;;;;;;82.35;58.88;;;10.20;99.90;;;;;;5110455;28;20203;-86
2023/01/04 17:11:22;;;;;;;99.70;68.03;;;10.10;99.90;;;;;;5110417;28;20271;-86
2023/01/04 17:13:48;;;;;;;92.93;63.53;;;10.00;99.90;;;;;;5110292;28;20215;-82
2023/01/04 17:16:14;;;;;;;100.10;63.00;;;9.90;99.90;;;;;;5112484;28;20544;-83
2023/01/04 17:18:40;;;;;;;79.47;55.90;;;9.90;99.90;;;;;;5115899;28;20228;-83
2023/01/04 17:21:09;;;;;;;66.13;47.20;;;9.80;99.90;;;;;;5116599;28;20219;-84
2023/01/04 17:23:39;;;;;;;84.93;60.40;;;9.80;99.90;;;;;;5117903;28;20694;-85
2023/01/04 17:26:08;;;;;;;115.55;91.03;;;9.80;99.90;;;;;;5116623;28;20182;-86
2023/01/04 17:28:35;;;;;;;139.55;104.90;;;9.80;99.90;;;;;;5117889;28;20211;-83
2023/01/04 17:31:19;;;;;;;165.88;128.38;;;9.70;99.90;;;;;;5116551;28;20579;-85
2023/01/04 17:33:46;;;;;;;170.93;127.50;;;9.70;99.90;;;;;;5117787;28;20290;-85
2023/01/04 17:36:13;;;;;;;89.78;65.25;;;9.60;99.90;;;;;;5117797;28;20176;-85
2023/01/04 17:38:39;;;;;;;62.00;41.25;;;9.50;99.90;;;;;;5117537;28;20204;-85
2023/01/04 17:41:10;;;;;;;105.03;71.80;;;9.50;99.90;;;;;;5116458;28;20306;-82
2023/01/04 17:43:36;;;;;;;93.85;66.85;;;9.40;99.90;;;;;;5117699;28;20212;-83
2023/01/04 17:46:22;;;;;;;62.58;44.70;;;9.30;99.90;;;;;;5116325;28;20176;-86
2023/01/04 17:48:48;;;;;;;49.80;37.17;;;9.30;99.90;;;;;;5116296;28;20235;-85
2023/01/04 17:51:20;;;;;;;51.60;39.90;;;9.30;99.90;;;;;;5117526;28;20644;-85
2023/01/04 17:53:48;;;;;;;77.43;56.25;;;9.40;99.90;;;;;;5117062;28;20719;-86
2023/01/04 17:56:16;;;;;;;107.22;69.35;;;9.30;99.90;;;;;;5117425;28;20172;-83
2023/01/04 17:58:43;;;;;;;92.90;61.08;;;9.30;99.90;;;;;;5116094;28;20203;-85
2023/01/04 18:01:20;;;;;;;111.57;75.50;;;9.30;99.90;;;;;;5117346;28;20172;-85
2023/01/04 18:03:47;;;;;;;103.32;70.47;;;9.20;99.90;;;;;;5117529;28;20203;-82
2023/01/04 18:06:18;;;;;;;68.88;47.13;;;9.10;99.90;;;;;;5115911;28;20175;-83
2023/01/04 18:08:44;;;;;;;72.38;49.15;;;9.10;99.90;;;;;;5115892;28;20261;-86
2023/01/04 18:11:10;;;;;;;56.57;37.60;;;9.10;99.90;;;;;;5117193;28;20172;-82
2023/01/04 18:13:39;;;;;;;65.95;45.38;;;9.10;99.90;;;;;;5117040;28;20286;-85
2023/01/04 18:16:07;;;;;;;60.95;43.22;;;9.20;99.90;;;;;;5117123;28;20198;-85
2023/01/04 18:18:33;;;;;;;69.75;49.72;;;9.20;99.90;;;;;;5116942;27;20230;-82
2023/01/04 18:21:21;;;;;;;72.30;50.50;;;9.20;99.90;;;;;;5115611;28;20647;-83
2023/01/04 18:23:48;;;;;;;58.95;42.50;;;9.20;99.90;;;;;;5116677;28;20439;-83
2023/01/04 18:26:16;;;;;;;68.82;47.15;;;9.10;99.90;;;;;;5115000;28;20267;-85
2023/01/04 18:28:41;;;;;;;75.10;48.83;;;9.10;99.90;;;;;;5116837;28;20204;-83
2023/01/04 18:31:12;;;;;;;67.57;48.23;;;9.00;99.90;;;;;;5116763;28;20172;-83
2023/01/04 18:33:38;;;;;;;64.32;46.08;;;9.00;99.90;;;;;;5116457;28;20252;-82
2023/01/04 18:36:06;;;;;;;65.72;42.40;;;9.00;99.90;;;;;;5116677;28;20172;-82
2023/01/04 18:38:32;;;;;;;67.70;44.95;;;9.00;99.90;;;;;;5115145;28;20203;-85
2023/01/04 18:40:58;;;;;;;73.45;51.83;;;9.00;99.90;;;;;;5115186;28;20182;-85
2023/01/04 18:43:23;;;;;;;91.23;65.17;;;8.90;99.90;;;;;;5105994;28;20200;-82
2023/01/04 18:45:49;;;;;;;75.00;51.50;;;8.90;99.90;;;;;;5102752;28;20179;-82
2023/01/04 18:48:15;;;;;;;65.40;44.27;;;8.90;99.90;;;;;;5092791;28;20203;-84
2023/01/04 18:50:40;;;;;;;67.33;42.50;;;8.80;99.90;;;;;;5093946;28;20176;-85
2023/01/04 18:53:06;;;;;;;74.50;44.43;;;8.80;99.90;;;;;;5093635;28;20185;-83
2023/01/04 18:55:32;;;;;;;59.93;41.63;;;8.70;99.90;;;;;;5092891;28;20236;-85
2023/01/04 18:57:57;;;;;;;67.97;46.13;;;8.60;99.90;;;;;;5094409;28;20230;-85
2023/01/04 19:00:28;;;;;;;61.00;42.23;;;8.60;99.90;;;;;;5095631;28;20225;-86
2023/01/04 19:02:55;;;;;;;56.88;40.47;;;8.50;99.90;;;;;;5095208;28;20184;-82
2023/01/04 19:05:21;;;;;;;57.67;39.33;;;8.50;99.90;;;;;;5092479;28;20712;-85
2023/01/04 19:07:49;;;;;;;59.53;37.50;;;8.50;99.90;;;;;;5092145;28;20192;-84
2023/01/04 19:10:15;;;;;;;59.88;37.78;;;8.50;99.90;;;;;;5092258;28;20210;-82
2023/01/04 19:12:42;;;;;;;56.25;37.22;;;8.40;99.90;;;;;;5092040;28;20197;-85
2023/01/04 19:15:09;;;;;;;52.83;35.65;;;8.40;99.90;;;;;;5093133;28;20227;-82
2023/01/04 19:17:34;;;;;;;54.33;37.30;;;8.30;99.90;;;;;;5091927;28;20715;-82
2023/01/04 19:20:01;;;;;;;87.00;53.27;;;8.30;99.90;;;;;;5093564;28;20177;-82
2023/01/04 19:22:26;;;;;;;60.08;38.40;;;8.20;99.90;;;;;;5095215;28;20446;-82
2023/01/04 19:24:52;;;;;;;71.50;41.90;;;8.10;99.90;;;;;;5095678;28;20629;-83
2023/01/04 19:27:19;;;;;;;57.07;36.60;;;8.10;99.90;;;;;;5095098;28;20217;-85
2023/01/04 19:29:45;;;;;;;56.22;38.28;;;8.10;99.90;;;;;;5095488;28;20640;-82
2023/01/04 19:32:11;;;;;;;61.23;37.97;;;8.10;99.90;;;;;;5093858;28;20177;-83
2023/01/04 19:34:36;;;;;;;56.45;37.13;;;8.00;99.90;;;;;;5093884;28;20451;-83
2023/01/04 19:37:03;;;;;;;57.30;39.20;;;8.10;99.90;;;;;;5093745;28;20176;-82
2023/01/04 19:39:29;;;;;;;56.70;37.50;;;8.20;99.90;;;;;;5092790;28;20645;-82
2023/01/04 19:41:54;;;;;;;55.90;39.20;;;8.20;99.90;;;;;;5093582;28;20173;-85
2023/01/04 19:44:20;;;;;;;68.90;43.77;;;8.30;99.90;;;;;;5095119;28;20180;-85
2023/01/04 19:46:46;;;;;;;64.03;43.17;;;8.40;99.90;;;;;;5094869;28;20398;-83
2023/01/04 19:49:12;;;;;;;73.97;45.33;;;8.40;99.90;;;;;;5093564;28;20209;-85
2023/01/04 19:51:38;;;;;;;65.37;43.17;;;8.40;99.90;;;;;;5094733;28;20171;-85
2023/01/04 19:54:03;;;;;;;72.13;45.10;;;8.50;99.90;;;;;;5093096;28;20748;-85
2023/01/04 19:56:29;;;;;;;68.90;49.00;;;8.40;99.90;;;;;;5093395;28;20177;-84
2023/01/04 19:58:55;;;;;;;68.90;45.83;;;8.30;99.90;;;;;;5093441;28;20229;-83
2023/01/04 20:01:21;;;;;;;68.77;44.57;;;8.30;99.90;;;;;;5093386;28;20173;-85
2023/01/04 20:03:48;;;;;;;67.00;43.30;;;8.20;99.90;;;;;;5093274;28;20212;-82
2023/01/04 20:06:14;;;;;;;59.42;38.97;;;8.20;99.90;;;;;;5093238;28;20183;-85
2023/01/04 20:08:41;;;;;;;61.13;38.45;;;8.10;99.90;;;;;;5093102;28;20215;-85
2023/01/04 20:11:07;;;;;;;63.72;38.63;;;8.00;99.90;;;;;;5094432;28;20172;-82
2023/01/04 20:13:33;;;;;;;60.60;37.65;;;8.00;99.90;;;;;;5094482;28;20203;-85
2023/01/04 20:16:05;;;;;;;66.60;42.73;;;8.00;99.90;;;;;;5094384;28;20526;-82
2023/01/04 20:18:31;;;;;;;67.75;42.60;;;8.00;99.90;;;;;;5094167;28;20448;-84
2023/01/04 20:20:57;;;;;;;77.72;45.85;;;8.00;99.90;;;;;;5093091;28;20172;-84
2023/01/04 20:23:23;;;;;;;72.13;43.00;;;8.10;99.90;;;;;;5094223;28;20188;-82
2023/01/04 20:25:53;;;;;;;72.80;44.50;;;8.20;99.90;;;;;;5092982;28;20168;-84
2023/01/04 20:28:23;;;;;;;61.67;39.33;;;8.20;99.90;;;;;;5093983;28;20471;-83
2023/01/04 20:31:00;;;;;;;69.32;41.03;;;8.20;99.90;;;;;;5093182;28;20184;-83
2023/01/04 20:33:26;;;;;;;68.13;43.67;;;8.30;99.90;;;;;;5092841;28;20713;-85
2023/01/04 20:35:52;;;;;;;67.70;40.47;;;8.20;99.90;;;;;;5093878;28;20298;-82
2023/01/04 20:38:17;;;;;;;75.63;44.67;;;8.20;99.90;;;;;;5092664;28;20239;-82
2023/01/04 20:40:43;;;;;;;62.07;40.10;;;8.30;99.90;;;;;;5093995;28;20247;-83
2023/01/04 20:45:53;;;;;;;66.38;42.70;;;8.30;99.90;;;;;;5094242;28;20678;-85
2023/01/04 20:48:18;;;;;;;71.60;43.20;;;8.20;99.90;;;;;;5093733;28;20279;-85
2023/01/04 20:50:44;;;;;;;76.30;43.57;;;8.20;99.90;;;;;;5093782;28;20192;-85
2023/01/04 20:53:12;;;;;;;63.80;41.93;;;8.10;99.90;;;;;;5093739;28;20192;-83
2023/01/04 20:55:39;;;;;;;68.60;40.10;;;8.10;99.90;;;;;;5092415;28;20212;-82
2023/01/04 20:58:09;;;;;;;73.20;42.97;;;8.00;99.90;;;;;;5092348;28;20556;-85
2023/01/04 21:00:36;;;;;;;65.93;41.03;;;8.00;99.90;;;;;;5093808;28;20165;-85
2023/01/04 21:03:02;;;;;;;67.82;42.60;;;7.90;99.90;;;;;;5092326;28;20200;-85
2023/01/04 21:05:28;;;;;;;68.53;42.13;;;7.90;99.90;;;;;;5094189;28;20180;-85
2023/01/04 21:07:54;;;;;;;58.10;35.97;;;7.90;99.90;;;;;;5093645;28;20196;-82
2023/01/04 21:10:20;;;;;;;48.60;34.20;;;7.80;99.90;;;;;;5094054;28;20683;-85
2023/01/04 21:12:45;;;;;;;62.40;39.87;;;7.70;99.90;;;;;;5092214;28;20249;-82
2023/01/04 21:15:11;;;;;;;59.53;36.03;;;7.70;99.90;;;;;;5094104;28;20211;-85
2023/01/04 21:17:37;;;;;;;51.53;36.63;;;7.60;99.90;;;;;;5093516;28;20196;-85
2023/01/04 21:20:04;;;;;;;53.47;35.03;;;7.50;99.90;;;;;;5092551;28;20176;-82
2023/01/04 21:22:29;;;;;;;48.83;31.75;;;7.40;99.90;;;;;;5092116;28;20200;-85
2023/01/04 21:24:55;;;;;;;45.20;30.90;;;7.20;99.90;;;;;;5093867;28;20640;-83
2023/01/04 21:27:22;;;;;;;40.30;26.30;;;7.10;99.90;;;;;;5093504;28;20215;-85
2023/01/04 21:29:47;;;;;;;40.55;25.85;;;7.00;99.90;;;;;;5092378;28;20421;-85
2023/01/04 21:32:13;;;;;;;39.83;25.90;;;7.00;99.90;;;;;;5093399;28;20222;-85
2023/01/04 21:34:39;;;;;;;41.27;27.53;;;7.00;99.90;;;;;;5093254;28;20316;-85
2023/01/04 21:37:04;;;;;;;50.73;27.97;;;6.90;99.90;;;;;;5092148;28;20217;-85
2023/01/04 21:39:30;;;;;;;37.17;25.40;;;6.90;99.90;;;;;;5093719;28;20648;-84
2023/01/04 21:41:56;;;;;;;41.57;27.23;;;6.90;99.90;;;;;;5093331;28;20173;-85
2023/01/04 21:44:21;;;;;;;38.63;24.60;;;6.80;99.90;;;;;;5092195;28;20263;-85
2023/01/04 21:46:47;;;;;;;39.60;25.03;;;6.80;99.90;;;;;;5093531;28;20187;-83
2023/01/04 21:49:13;;;;;;;33.47;21.53;;;6.80;99.90;;;;;;5092024;28;20232;-85
2023/01/04 21:51:38;;;;;;;35.30;21.80;;;6.90;99.90;;;;;;5091994;28;20204;-85
2023/01/04 21:54:04;;;;;;;33.73;23.20;;;6.90;99.90;;;;;;5092960;28;20736;-85
2023/01/04 21:56:30;;;;;;;39.70;25.60;;;6.90;99.90;;;;;;5093519;28;20188;-82